Sarahsville, Ohio
Current Conditions -  °F | °C
As of 3:53 AM on Friday 28 Nov 2014 (Local Time) from KZZV Reporting Station
Overcast Overcast  
Wind Chill: 19°   Ceiling: 2600
Heat Index: 27°   Visibility: 10mi
Dew Point: 20°   Wind: 8mph
Humidity: 75%   Direction: 270°W
Pressure: 30.32"   Gusts: NA
Location:  39.81°N, 81.47°W
Report Text: KZZV 280853Z AUTO 27007KT 10SM BKN026 OVC055 M03/M07 A3032 RMK AO2 SLP276 T10281067 53005
Loading
Personal Weather Stations






























Interactive Weather Map New forecast layout! Learn more

10-Day Weather Forecast

Advertisements
Track Severe Weather on mobile